createdAt,value
2022-11-30T00:01:24.587Z,82.10
2022-11-30T00:03:55.665Z,79.57
2022-11-30T00:06:23.758Z,80.80
2022-11-30T00:08:56.159Z,79.43
2022-11-30T00:11:25.117Z,84.10
2022-11-30T00:13:51.915Z,78.68
2022-11-30T00:16:19.235Z,81.05
2022-11-30T00:18:45.902Z,83.30
2022-11-30T00:21:14.539Z,80.80
2022-11-30T00:23:43.253Z,82.22
2022-11-30T00:26:13.075Z,81.40
2022-11-30T00:28:40.341Z,80.07
2022-11-30T00:31:12.258Z,82.05
2022-11-30T00:33:39.591Z,82.13
2022-11-30T00:36:12.205Z,80.25
2022-11-30T00:38:39.439Z,82.00
2022-11-30T00:41:06.796Z,79.53
2022-11-30T00:43:33.419Z,76.45
2022-11-30T00:46:00.987Z,81.45
2022-11-30T00:48:27.660Z,80.78
2022-11-30T00:50:54.980Z,82.63
2022-11-30T00:53:21.828Z,81.38
2022-11-30T00:55:49.419Z,82.35
2022-11-30T00:58:16.349Z,83.43
2022-11-30T01:00:44.134Z,83.65
2022-11-30T01:03:11.137Z,85.40
2022-11-30T01:05:39.255Z,85.80
2022-11-30T01:08:08.074Z,83.43
2022-11-30T01:10:36.581Z,85.88
2022-11-30T01:13:03.947Z,83.78
2022-11-30T01:15:32.199Z,87.22
2022-11-30T01:18:01.886Z,81.38
2022-11-30T01:20:29.211Z,86.43
2022-11-30T01:22:56.142Z,85.57
2022-11-30T01:25:23.749Z,82.90
2022-11-30T01:27:51.125Z,85.35
2022-11-30T01:30:18.768Z,81.00
2022-11-30T01:32:45.648Z,83.32
2022-11-30T01:35:13.191Z,83.47
2022-11-30T01:37:39.818Z,79.55
2022-11-30T01:40:07.690Z,79.18
2022-11-30T01:42:34.344Z,80.82
2022-11-30T01:45:02.633Z,82.25
2022-11-30T01:47:34.339Z,82.68
2022-11-30T01:50:08.802Z,84.23
2022-11-30T01:52:45.422Z,82.07
2022-11-30T01:55:31.523Z,79.00
2022-11-30T01:58:00.925Z,77.45
2022-11-30T02:00:28.486Z,79.32
2022-11-30T02:03:23.944Z,75.80
2022-11-30T02:05:51.439Z,78.13
2022-11-30T02:08:19.253Z,75.05
2022-11-30T02:10:52.901Z,72.88
2022-11-30T02:13:28.619Z,73.20
2022-11-30T02:16:08.212Z,72.95
2022-11-30T02:19:02.253Z,75.03
2022-11-30T02:21:45.408Z,73.07
2022-11-30T02:24:30.578Z,73.43
2022-11-30T02:27:00.589Z,76.60
2022-11-30T02:29:34.530Z,73.95
2022-11-30T02:32:03.957Z,73.13
2022-11-30T02:34:35.225Z,70.53
2022-11-30T02:37:02.986Z,70.10
2022-11-30T02:39:29.921Z,66.45
2022-11-30T02:41:57.166Z,67.53
2022-11-30T02:44:24.966Z,62.70
2022-11-30T02:47:11.018Z,60.53
2022-11-30T02:49:46.802Z,55.72
2022-11-30T02:52:15.387Z,55.67
2022-11-30T02:54:43.223Z,53.80
2022-11-30T02:57:09.914Z,51.70
2022-11-30T02:59:37.007Z,52.75
2022-11-30T03:02:03.687Z,52.25
2022-11-30T03:04:30.641Z,50.47
2022-11-30T03:06:57.876Z,50.67
2022-11-30T03:09:24.522Z,49.40
2022-11-30T03:11:51.826Z,48.83
2022-11-30T03:14:18.768Z,50.10
2022-11-30T03:16:46.075Z,49.38
2022-11-30T03:19:14.032Z,51.03
2022-11-30T03:21:41.373Z,49.88
2022-11-30T03:24:08.227Z,51.45
2022-11-30T03:26:35.158Z,49.47
2022-11-30T03:29:01.790Z,49.97
2022-11-30T03:31:29.730Z,48.72
2022-11-30T03:33:56.357Z,47.58
2022-11-30T03:36:23.701Z,48.83
2022-11-30T03:38:50.597Z,46.83
2022-11-30T03:41:18.930Z,48.67
2022-11-30T03:43:47.050Z,48.92
2022-11-30T03:46:15.178Z,48.55
2022-11-30T03:48:44.324Z,47.72
2022-11-30T03:51:12.670Z,49.30
2022-11-30T03:53:39.885Z,50.03
2022-11-30T03:56:09.786Z,48.60
2022-11-30T03:58:36.831Z,49.03
2022-11-30T04:01:23.955Z,50.85
2022-11-30T04:03:52.050Z,50.53
2022-11-30T04:06:20.167Z,50.83
2022-11-30T04:08:47.087Z,49.60
2022-11-30T04:11:14.563Z,50.58
2022-11-30T04:13:42.170Z,47.90
2022-11-30T04:16:09.897Z,46.63
2022-11-30T04:18:38.058Z,49.13
2022-11-30T04:21:06.935Z,47.65
2022-11-30T04:23:36.822Z,47.83
2022-11-30T04:26:11.038Z,48.20
2022-11-30T04:28:37.779Z,49.40
2022-11-30T04:31:05.678Z,48.13
2022-11-30T04:33:32.419Z,47.40
2022-11-30T04:36:02.455Z,48.83
2022-11-30T04:38:29.642Z,50.08
2022-11-30T04:40:57.163Z,47.72
2022-11-30T04:43:24.721Z,47.17
2022-11-30T04:45:52.012Z,47.03
2022-11-30T04:48:19.400Z,47.00
2022-11-30T04:50:46.728Z,46.55
2022-11-30T04:53:13.436Z,48.00
2022-11-30T04:55:40.367Z,46.30
2022-11-30T04:58:08.183Z,47.20
2022-11-30T05:00:35.429Z,46.67
2022-11-30T05:03:03.130Z,47.75
2022-11-30T05:05:29.793Z,49.03
2022-11-30T05:07:59.224Z,48.53
2022-11-30T05:10:27.449Z,50.38
2022-11-30T05:12:55.777Z,50.15
2022-11-30T05:15:22.500Z,49.65
2022-11-30T05:17:49.753Z,48.92
2022-11-30T05:20:16.518Z,49.95
2022-11-30T05:22:44.025Z,50.42
2022-11-30T05:25:10.813Z,50.63
2022-11-30T05:27:38.068Z,50.47
2022-11-30T05:30:05.502Z,49.20
2022-11-30T05:32:32.777Z,48.80
2022-11-30T05:34:59.679Z,52.25
2022-11-30T05:37:26.999Z,50.45
2022-11-30T05:39:53.717Z,50.92
2022-11-30T05:42:21.558Z,50.17
2022-11-30T05:44:48.530Z,50.70
2022-11-30T05:47:16.519Z,50.45
2022-11-30T05:49:43.292Z,49.35
2022-11-30T05:52:10.533Z,49.10
2022-11-30T05:54:37.814Z,49.50
2022-11-30T05:57:05.319Z,49.80
2022-11-30T05:59:32.958Z,48.45
2022-11-30T06:01:59.826Z,46.75
2022-11-30T06:04:27.248Z,44.30
2022-11-30T06:06:55.450Z,44.67
2022-11-30T06:09:23.425Z,46.33
2022-11-30T06:11:50.224Z,43.92
2022-11-30T06:14:17.799Z,44.45
2022-11-30T06:16:44.474Z,42.67
2022-11-30T06:19:11.936Z,41.13
2022-11-30T06:21:38.752Z,43.75
2022-11-30T06:24:06.545Z,43.25
2022-11-30T06:26:33.315Z,41.90
2022-11-30T06:29:00.585Z,45.97
2022-11-30T06:31:27.231Z,44.25
2022-11-30T06:33:58.324Z,46.53
2022-11-30T06:36:25.112Z,47.22
2022-11-30T06:38:52.436Z,46.53
2022-11-30T06:41:19.430Z,46.88
2022-11-30T06:43:46.728Z,45.17
2022-11-30T06:46:13.587Z,47.47
2022-11-30T06:48:40.741Z,46.17
2022-11-30T06:51:10.661Z,45.45
2022-11-30T06:53:37.929Z,45.65
2022-11-30T06:56:10.646Z,46.42
2022-11-30T06:58:39.956Z,45.72
2022-11-30T07:01:08.227Z,45.75
2022-11-30T07:03:36.577Z,45.90
2022-11-30T07:06:08.413Z,49.58
2022-11-30T07:08:35.874Z,48.15
2022-11-30T07:11:02.626Z,46.88
2022-11-30T07:13:30.330Z,44.97
2022-11-30T07:15:56.947Z,45.88
2022-11-30T07:18:30.162Z,44.83
2022-11-30T07:21:02.927Z,45.50
2022-11-30T07:23:55.525Z,46.00
2022-11-30T07:26:23.735Z,48.63
2022-11-30T07:28:55.433Z,47.35
2022-11-30T07:31:36.130Z,49.70
2022-11-30T07:34:09.441Z,47.20
2022-11-30T07:39:04.427Z,46.05
2022-11-30T07:41:31.093Z,49.13
2022-11-30T07:44:01.091Z,49.55
2022-11-30T07:46:27.997Z,52.03
2022-11-30T07:48:54.908Z,54.58
2022-11-30T07:51:22.444Z,55.00
2022-11-30T07:53:49.842Z,56.15
2022-11-30T07:56:19.699Z,56.15
2022-11-30T07:58:47.885Z,57.08
2022-11-30T08:01:21.366Z,59.65
2022-11-30T08:03:52.189Z,58.13
2022-11-30T08:06:24.889Z,55.95
2022-11-30T08:08:53.865Z,53.65
2022-11-30T08:11:23.674Z,55.17
2022-11-30T08:13:51.111Z,56.83
2022-11-30T08:16:20.400Z,58.53
2022-11-30T08:18:48.129Z,57.63
2022-11-30T08:21:18.333Z,55.30
2022-11-30T08:23:48.598Z,54.90
2022-11-30T08:26:21.516Z,53.60
2022-11-30T08:28:50.751Z,54.83
2022-11-30T08:31:42.300Z,53.97
2022-11-30T08:34:14.074Z,54.13
2022-11-30T08:36:41.274Z,51.42
2022-11-30T08:39:09.386Z,52.78
2022-11-30T08:41:36.420Z,53.78
2022-11-30T08:44:03.570Z,51.78
2022-11-30T08:49:22.488Z,51.35
2022-11-30T08:54:43.004Z,50.72
2022-11-30T08:57:09.672Z,53.90
2022-11-30T08:59:37.252Z,52.92
2022-11-30T09:02:03.939Z,52.13
2022-11-30T09:04:31.175Z,51.10
2022-11-30T09:06:59.044Z,49.50
2022-11-30T09:09:26.705Z,50.35
2022-11-30T09:11:53.264Z,48.47
2022-11-30T09:14:20.604Z,48.63
2022-11-30T09:16:47.301Z,47.83
2022-11-30T09:19:14.227Z,49.45
2022-11-30T09:21:44.256Z,47.95
2022-11-30T09:24:14.111Z,50.88
2022-11-30T09:26:40.683Z,48.75
2022-11-30T09:29:07.965Z,48.60
2022-11-30T09:31:34.620Z,49.03
2022-11-30T09:34:01.888Z,48.13
2022-11-30T09:36:29.060Z,48.10
2022-11-30T09:38:57.206Z,47.53
2022-11-30T09:42:04.995Z,48.25
2022-11-30T09:44:40.248Z,48.30
2022-11-30T09:47:16.050Z,47.75
2022-11-30T09:49:48.728Z,46.75
2022-11-30T09:54:47.937Z,48.72
2022-11-30T09:57:41.292Z,48.55
2022-11-30T10:00:17.437Z,49.38
2022-11-30T10:02:45.854Z,48.45
2022-11-30T10:05:22.883Z,46.92
2022-11-30T10:08:17.757Z,47.28
2022-11-30T10:11:13.020Z,48.50
2022-11-30T10:14:01.235Z,48.92
2022-11-30T10:16:40.858Z,47.35
2022-11-30T10:19:17.105Z,47.97
2022-11-30T10:21:52.288Z,48.50
2022-11-30T10:24:53.792Z,48.58
2022-11-30T10:27:37.596Z,46.70
2022-11-30T10:30:13.408Z,46.03
2022-11-30T10:32:43.169Z,45.95
2022-11-30T10:35:38.694Z,45.42
2022-11-30T10:38:22.366Z,44.53
2022-11-30T10:41:13.376Z,43.47
2022-11-30T10:43:57.434Z,44.90
2022-11-30T10:46:30.802Z,44.05
2022-11-30T10:49:05.366Z,43.15
2022-11-30T10:51:36.886Z,43.47
2022-11-30T10:54:22.079Z,43.78
2022-11-30T10:56:49.057Z,43.42
2022-11-30T10:59:40.750Z,44.38
2022-11-30T11:02:45.948Z,44.28
2022-11-30T11:05:23.722Z,43.58
2022-11-30T11:07:50.820Z,45.25
2022-11-30T11:10:21.322Z,43.22
2022-11-30T11:12:55.722Z,43.78
2022-11-30T11:15:25.694Z,43.20
2022-11-30T11:17:53.661Z,44.10
2022-11-30T11:20:36.018Z,42.95
2022-11-30T11:23:04.689Z,41.13
2022-11-30T11:25:36.290Z,42.10
2022-11-30T11:28:14.378Z,41.33
2022-11-30T11:30:41.239Z,42.72
2022-11-30T11:33:14.124Z,41.60
2022-11-30T11:35:52.838Z,40.88
2022-11-30T11:38:47.088Z,39.75
2022-11-30T11:41:25.715Z,40.65
2022-11-30T11:44:23.756Z,40.90
2022-11-30T11:47:00.985Z,39.45
2022-11-30T11:49:32.004Z,40.67
2022-11-30T11:52:15.027Z,38.47
2022-11-30T11:54:56.772Z,39.08
2022-11-30T11:57:36.056Z,40.13
2022-11-30T12:00:16.684Z,39.58
2022-11-30T12:03:13.599Z,38.33
2022-11-30T12:05:46.021Z,35.97
2022-11-30T12:09:07.816Z,38.73
2022-11-30T12:11:46.480Z,35.75
2022-11-30T12:14:17.026Z,33.72
2022-11-30T12:17:31.202Z,35.00
2022-11-30T12:20:14.373Z,34.00
2022-11-30T12:23:06.630Z,35.85
2022-11-30T12:26:02.921Z,27.07
2022-11-30T12:29:00.088Z,35.90
2022-11-30T12:31:47.351Z,34.58
2022-11-30T12:34:39.257Z,34.65
2022-11-30T12:37:25.964Z,32.65
2022-11-30T12:40:26.386Z,34.72
2022-11-30T12:42:59.039Z,33.17
2022-11-30T12:48:28.634Z,31.80
2022-11-30T12:50:55.654Z,32.92
2022-11-30T12:53:41.927Z,33.58
2022-11-30T12:56:26.659Z,32.30
2022-11-30T12:59:11.467Z,40.95
2022-11-30T13:01:47.093Z,42.08
2022-11-30T13:04:32.619Z,41.85
2022-11-30T13:07:11.759Z,35.28
2022-11-30T13:09:47.979Z,36.42
2022-11-30T13:12:23.812Z,34.03
2022-11-30T13:14:58.720Z,34.50
2022-11-30T13:17:26.552Z,38.72
2022-11-30T13:20:31.173Z,39.42
2022-11-30T13:23:19.476Z,36.05
2022-11-30T13:26:17.008Z,32.88
2022-11-30T13:29:08.507Z,33.35
2022-11-30T13:31:47.806Z,31.05
2022-11-30T13:34:29.536Z,31.58
2022-11-30T13:37:11.364Z,32.53
2022-11-30T13:39:45.896Z,32.20
2022-11-30T13:42:21.732Z,31.33
2022-11-30T13:44:49.800Z,32.90
2022-11-30T13:47:29.585Z,33.28
2022-11-30T13:49:59.297Z,32.85
2022-11-30T13:53:06.623Z,30.55
2022-11-30T13:55:46.345Z,28.05
2022-11-30T13:58:15.568Z,28.23
2022-11-30T14:00:44.653Z,29.90
2022-11-30T14:03:26.701Z,27.48
2022-11-30T14:05:54.121Z,29.33
2022-11-30T14:08:21.304Z,27.35
2022-11-30T14:10:49.829Z,25.65
2022-11-30T14:13:25.609Z,25.60
2022-11-30T14:16:00.702Z,25.88
2022-11-30T14:18:39.580Z,24.98
2022-11-30T14:21:28.979Z,23.95
2022-11-30T14:24:19.558Z,24.77
2022-11-30T14:26:49.003Z,23.77
2022-11-30T14:29:23.766Z,23.67
2022-11-30T14:32:12.303Z,24.55
2022-11-30T14:34:44.182Z,23.95
2022-11-30T14:37:24.011Z,23.88
2022-11-30T14:39:56.079Z,22.85
2022-11-30T14:42:33.247Z,22.52
2022-11-30T14:45:00.912Z,22.35
2022-11-30T14:47:33.351Z,22.45
2022-11-30T14:50:02.925Z,24.10
2022-11-30T14:52:38.886Z,21.48
2022-11-30T14:55:20.737Z,22.75
2022-11-30T14:58:09.922Z,22.38
2022-11-30T15:00:39.489Z,22.55
2022-11-30T15:03:38.879Z,23.20
2022-11-30T15:06:07.703Z,21.85
2022-11-30T15:08:42.132Z,24.05
2022-11-30T15:11:14.820Z,22.90
2022-11-30T15:13:44.575Z,23.77
2022-11-30T15:16:29.172Z,22.25
2022-11-30T15:18:58.266Z,21.85
2022-11-30T15:21:32.438Z,21.98
2022-11-30T15:24:02.574Z,21.70
2022-11-30T15:26:34.768Z,21.52
2022-11-30T15:29:09.809Z,21.33
2022-11-30T15:31:39.051Z,23.02
2022-11-30T15:34:07.181Z,20.88
2022-11-30T15:36:39.138Z,21.67
2022-11-30T15:39:07.927Z,20.73
2022-11-30T15:41:35.735Z,21.27
2022-11-30T15:44:02.395Z,22.55
2022-11-30T15:46:34.945Z,21.85
2022-11-30T15:49:22.769Z,23.48
2022-11-30T15:52:10.497Z,21.00
2022-11-30T15:55:03.089Z,21.48
2022-11-30T15:57:59.062Z,23.47
2022-11-30T16:00:26.198Z,22.08
2022-11-30T16:03:13.020Z,23.67
2022-11-30T16:05:40.275Z,23.20
2022-11-30T16:08:16.748Z,23.02
2022-11-30T16:10:43.858Z,23.60
2022-11-30T16:13:15.187Z,23.30
2022-11-30T16:15:48.212Z,24.02
2022-11-30T16:18:21.231Z,24.27
2022-11-30T16:20:50.465Z,23.88
2022-11-30T16:23:19.415Z,24.58
2022-11-30T16:25:47.872Z,23.80
2022-11-30T16:28:16.456Z,24.67
2022-11-30T16:30:44.953Z,23.85
2022-11-30T16:33:23.331Z,24.40
2022-11-30T16:36:07.585Z,24.52
2022-11-30T16:38:34.609Z,26.17
2022-11-30T16:41:18.457Z,24.58
2022-11-30T16:43:47.532Z,26.20
2022-11-30T16:46:17.496Z,26.17
2022-11-30T16:48:44.990Z,26.75
2022-11-30T16:51:19.086Z,28.50
2022-11-30T16:53:46.638Z,27.58
2022-11-30T16:56:14.846Z,27.40
2022-11-30T16:58:42.458Z,28.38
2022-11-30T17:01:36.626Z,29.00
2022-11-30T17:04:25.901Z,28.27
2022-11-30T17:06:58.822Z,29.10
2022-11-30T17:09:30.605Z,32.50
2022-11-30T17:11:57.470Z,27.67
2022-11-30T17:14:24.813Z,30.15
2022-11-30T17:16:51.537Z,30.48
2022-11-30T17:19:18.558Z,30.95
2022-11-30T17:21:45.685Z,34.45
2022-11-30T17:24:13.177Z,31.92
2022-11-30T17:26:40.725Z,31.30
2022-11-30T17:29:07.477Z,31.88
2022-11-30T17:31:34.672Z,34.30
2022-11-30T17:34:01.426Z,36.10
2022-11-30T17:36:29.570Z,37.03
2022-11-30T17:38:56.596Z,36.60
2022-11-30T17:41:23.804Z,40.83
2022-11-30T17:43:52.840Z,39.53
2022-11-30T17:46:20.284Z,39.95
2022-11-30T17:48:46.964Z,39.22
2022-11-30T17:51:13.829Z,40.20
2022-11-30T17:53:42.220Z,38.47
2022-11-30T17:56:11.794Z,37.10
2022-11-30T17:58:43.376Z,37.28
2022-11-30T18:01:22.234Z,38.67
2022-11-30T18:03:49.938Z,37.83
2022-11-30T18:06:17.371Z,40.55
2022-11-30T18:08:44.879Z,40.85
2022-11-30T18:11:17.172Z,38.78
2022-11-30T18:13:44.518Z,28.33
2022-11-30T18:16:14.746Z,38.65
2022-11-30T18:18:47.347Z,39.33
2022-11-30T18:21:20.203Z,41.22
2022-11-30T18:23:48.125Z,38.50
2022-11-30T18:26:17.711Z,39.75
2022-11-30T18:28:45.898Z,39.08
2022-11-30T18:31:13.112Z,39.63
2022-11-30T18:33:39.911Z,48.72
2022-11-30T18:36:07.531Z,43.28
2022-11-30T18:38:37.863Z,37.72
2022-11-30T18:41:05.859Z,37.20
2022-11-30T18:43:33.642Z,36.17
2022-11-30T18:46:09.313Z,38.17
2022-11-30T18:48:37.059Z,37.83
2022-11-30T18:51:15.803Z,39.80
2022-11-30T18:53:43.532Z,39.78
2022-11-30T18:56:20.956Z,36.38
2022-11-30T18:58:48.681Z,48.60
2022-11-30T19:01:18.141Z,34.60
2022-11-30T19:03:58.965Z,34.72
2022-11-30T19:06:29.716Z,35.28
2022-11-30T19:08:57.719Z,34.08
2022-11-30T19:11:24.652Z,33.13
2022-11-30T19:13:56.479Z,31.38
2022-11-30T19:16:24.482Z,33.28
2022-11-30T19:18:53.255Z,34.22
2022-11-30T19:21:21.894Z,34.70
2022-11-30T19:23:49.911Z,34.30
2022-11-30T19:26:16.872Z,37.60
2022-11-30T19:28:44.993Z,31.70
2022-11-30T19:31:17.517Z,42.28
2022-11-30T19:33:47.398Z,47.70
2022-11-30T19:36:18.152Z,41.70
2022-11-30T19:38:45.638Z,39.47
2022-11-30T19:41:14.413Z,57.85
2022-11-30T19:43:41.488Z,36.80
2022-11-30T19:46:11.397Z,38.20
2022-11-30T19:48:39.880Z,53.08
2022-11-30T19:51:16.455Z,44.95
2022-11-30T19:53:45.330Z,32.42
2022-11-30T19:56:17.102Z,38.17
2022-11-30T19:58:46.315Z,31.63
2022-11-30T20:01:24.788Z,29.40
2022-11-30T20:03:53.824Z,31.35
2022-11-30T20:06:23.782Z,31.55
2022-11-30T20:08:53.338Z,31.77
2022-11-30T20:11:19.975Z,30.83
2022-11-30T20:13:47.342Z,29.23
2022-11-30T20:16:16.915Z,39.38
2022-11-30T20:18:46.574Z,28.42
2022-11-30T20:21:19.873Z,28.58
2022-11-30T20:23:48.415Z,29.55
2022-11-30T20:26:23.206Z,28.90
2022-11-30T20:28:52.716Z,29.60
2022-11-30T20:31:21.806Z,31.15
2022-11-30T20:33:49.683Z,32.35
2022-11-30T20:36:17.844Z,30.63
2022-11-30T20:38:45.357Z,34.85
2022-11-30T20:41:15.443Z,37.53
2022-11-30T20:43:44.015Z,32.72
2022-11-30T20:46:27.210Z,38.55
2022-11-30T20:48:55.789Z,32.85
2022-11-30T20:51:32.837Z,47.10
2022-11-30T20:54:02.969Z,28.02
2022-11-30T20:56:29.993Z,30.65
2022-11-30T20:59:01.306Z,28.15
2022-11-30T21:01:27.978Z,27.95
2022-11-30T21:03:55.313Z,31.25
2022-11-30T21:06:21.976Z,33.45
2022-11-30T21:08:49.026Z,45.90
2022-11-30T21:11:19.658Z,32.53
2022-11-30T21:13:49.185Z,37.03
2022-11-30T21:16:22.527Z,45.05
2022-11-30T21:18:53.133Z,30.90
2022-11-30T21:21:23.056Z,39.97
2022-11-30T21:23:50.616Z,28.17
2022-11-30T21:26:23.538Z,42.15
2022-11-30T21:28:53.919Z,38.92
2022-11-30T21:31:22.121Z,29.02
2022-11-30T21:33:53.245Z,53.05
2022-11-30T21:36:21.662Z,33.40
2022-11-30T21:38:53.415Z,35.83
2022-11-30T21:41:20.225Z,45.85
2022-11-30T21:43:47.379Z,32.78
2022-11-30T21:46:17.991Z,31.52
2022-11-30T21:48:48.543Z,27.50
2022-11-30T21:51:21.472Z,31.77
2022-11-30T21:53:51.224Z,28.77
2022-11-30T21:56:23.740Z,25.50
2022-11-30T21:58:51.587Z,33.17
2022-11-30T22:01:41.899Z,22.70
2022-11-30T22:04:10.721Z,43.40
2022-11-30T22:06:39.001Z,28.60
2022-11-30T22:09:11.636Z,23.75
2022-11-30T22:11:40.276Z,24.45
2022-11-30T22:14:12.184Z,22.70
2022-11-30T22:16:38.952Z,28.67
2022-11-30T22:19:07.523Z,22.02
2022-11-30T22:21:34.638Z,21.38
2022-11-30T22:24:08.229Z,20.52
2022-11-30T22:26:40.249Z,21.55
2022-11-30T22:29:12.221Z,29.55
2022-11-30T22:31:42.869Z,28.20
2022-11-30T22:34:10.794Z,25.20
2022-11-30T22:36:39.901Z,43.53
2022-11-30T22:39:15.958Z,22.27
2022-11-30T22:41:45.295Z,22.52
2022-11-30T22:44:17.799Z,22.33
2022-11-30T22:46:44.792Z,25.20
2022-11-30T22:49:19.852Z,21.63
2022-11-30T22:51:47.677Z,24.33
2022-11-30T22:54:15.020Z,22.65
2022-11-30T22:56:41.846Z,24.33
2022-11-30T22:59:12.210Z,23.45
2022-11-30T23:01:42.804Z,23.52
2022-11-30T23:04:13.049Z,22.90
2022-11-30T23:06:41.516Z,22.13
2022-11-30T23:09:13.364Z,25.92
2022-11-30T23:11:40.172Z,24.45
2022-11-30T23:14:08.435Z,25.65
2022-11-30T23:16:38.793Z,24.20
2022-11-30T23:19:09.208Z,25.35
2022-11-30T23:21:41.823Z,26.98
2022-11-30T23:24:14.651Z,28.85
2022-11-30T23:26:42.527Z,27.10
2022-11-30T23:29:11.788Z,29.20
2022-11-30T23:31:40.116Z,28.23
2022-11-30T23:34:10.648Z,28.92
2022-11-30T23:36:37.461Z,31.83
2022-11-30T23:39:12.144Z,30.98
2022-11-30T23:41:39.394Z,31.70
2022-11-30T23:44:07.620Z,34.65
2022-11-30T23:46:34.720Z,35.38
2022-11-30T23:49:02.497Z,33.45
2022-11-30T23:51:29.282Z,35.72
2022-11-30T23:53:56.606Z,35.00
2022-11-30T23:56:24.265Z,33.45
2022-11-30T23:58:52.044Z,34.05
